Time;durP1;ratioP1;P1;durP2;ratioP2;P2;SDS_P1;SDS_P2;PMS_P1;PMS_P2;Temp;Humidity;BMP_temperature;BMP_pressure;BME280_temperature;BME280_humidity;BME280_pressure;Samples;Min_cycle;Max_cycle;Signal;HPM_P1;HPM_P2
2020/12/27 05:10:21;;;;;;;6.15;4.07;;;-5.50;93.30;;;;;;5066644;23;20064;-83
2020/12/27 06:58:24;;;;;;;9.48;6.03;;;-5.70;93.10;;;;;;5536064;22;19998;31
2020/12/27 08:42:19;;;;;;;32.95;15.18;;;-2.90;91.90;;;;;;2509857;22;20046;-83
2020/12/27 08:56:16;;;;;;;13.77;8.38;;;-2.70;91.20;;;;;;5335167;22;21151;31
2020/12/27 09:03:47;;;;;;;22.10;10.38;;;-2.50;91.30;;;;;;5055779;28;20026;-87
2020/12/27 09:08:47;;;;;;;21.70;13.18;;;-2.40;90.60;;;;;;5011959;28;20277;-80
2020/12/27 09:11:12;;;;;;;17.05;10.15;;;-1.00;90.60;;;;;;4998660;28;20050;-81
2020/12/27 09:16:08;;;;;;;69.30;24.55;;;-2.00;90.30;;;;;;5032094;28;20084;-81
2020/12/27 09:18:35;;;;;;;35.67;14.75;;;-2.00;89.40;;;;;;4995864;28;20097;-82
2020/12/27 09:31:29;;;;;;;13.88;7.72;;;-1.70;87.30;;;;;;5264685;23;20073;-81
2020/12/27 09:33:55;;;;;;;12.27;7.90;;;-1.20;89.20;;;;;;5012096;28;20030;-82
2020/12/27 09:36:23;;;;;;;12.38;7.90;;;-1.50;88.70;;;;;;5052332;23;20054;-81
2020/12/27 09:44:03;;;;;;;15.68;9.48;;;-1.40;89.70;;;;;;5551348;23;20033;-82
2020/12/27 09:59:26;;;;;;;11.60;7.57;;;-1.00;87.30;;;;;;5999383;23;20046;-80
2020/12/27 10:02:02;;;;;;;10.68;6.07;;;-0.90;87.90;;;;;;5051684;23;20038;-80
2020/12/27 10:04:31;;;;;;;10.27;7.05;;;-0.90;87.40;;;;;;5038566;28;20033;-81
2020/12/27 10:06:57;;;;;;;10.57;6.22;;;-0.80;87.60;;;;;;5040174;28;20025;-81
2020/12/27 10:09:28;;;;;;;7.45;6.35;;;-0.50;88.30;;;;;;5039827;28;20033;-80
2020/12/27 10:12:12;;;;;;;9.60;6.03;;;-0.70;86.40;;;;;;5056445;28;20034;-82
2020/12/27 10:14:48;;;;;;;5.25;3.58;;;-0.80;84.50;;;;;;5040654;28;20029;-81
2020/12/27 11:10:04;;;;;;;4.57;2.65;;;0.50;71.70;;;;;;4912119;22;20418;-80
2020/12/27 11:12:30;;;;;;;5.40;4.05;;;1.20;70.70;;;;;;5039856;28;20045;-81
2020/12/27 11:14:56;;;;;;;3.67;2.83;;;0.70;71.20;;;;;;5040381;28;20029;-82
2020/12/27 11:19:59;;;;;;;3.80;2.20;;;0.80;66.80;;;;;;5906129;22;20065;-80
2020/12/27 14:08:12;;;;;;;5.60;3.97;;;0.90;70.30;;;;;;5746749;22;20025;-84
2020/12/27 14:11:08;;;;;;;5.65;4.30;;;0.80;70.40;;;;;;5063907;28;20024;-84
2020/12/27 14:14:12;;;;;;;8.43;7.18;;;0.70;71.10;;;;;;5090378;23;20091;-84
2020/12/27 14:17:33;;;;;;;6.68;3.92;;;0.70;72.10;;;;;;5063840;28;20044;-83
2020/12/27 14:33:32;;;;;;;4.72;3.00;;;1.10;72.50;;;;;;5063403;22;20076;-83
2020/12/27 14:36:05;;;;;;;7.15;3.30;;;0.60;72.20;;;;;;5013565;28;20042;-84
2020/12/27 14:38:31;;;;;;;6.85;4.35;;;0.80;72.20;;;;;;5012563;28;20481;-84
2020/12/27 14:40:57;;;;;;;5.22;4.18;;;0.60;72.60;;;;;;5012178;28;20112;-84
2020/12/27 14:43:23;;;;;;;5.50;3.92;;;0.80;73.00;;;;;;5011070;28;20045;-84
2020/12/27 14:45:49;;;;;;;7.40;4.15;;;0.70;74.00;;;;;;5010330;28;20022;-84
2020/12/27 14:48:15;;;;;;;7.25;3.55;;;0.80;73.90;;;;;;5010801;28;20022;-84
2020/12/27 14:50:42;;;;;;;5.47;3.95;;;0.70;73.70;;;;;;5008180;28;20432;-85
2020/12/27 14:53:08;;;;;;;5.55;3.92;;;0.50;74.80;;;;;;5007644;28;20030;-84
2020/12/27 14:55:34;;;;;;;5.10;3.50;;;0.70;74.90;;;;;;5009797;28;20026;-84
2020/12/27 14:58:00;;;;;;;6.35;3.95;;;0.70;74.20;;;;;;5008878;28;20084;-84
2020/12/27 15:00:26;;;;;;;7.05;4.55;;;0.40;74.10;;;;;;5008264;28;20030;-84
2020/12/27 15:02:52;;;;;;;5.78;4.18;;;1.00;75.30;;;;;;5008173;28;20030;-84
2020/12/27 15:05:25;;;;;;;5.57;4.40;;;0.60;74.80;;;;;;5008549;28;20029;-84
2020/12/27 15:07:51;;;;;;;5.38;4.00;;;0.30;75.30;;;;;;5026163;28;20091;-84
2020/12/27 15:10:17;;;;;;;9.38;3.40;;;0.40;76.30;;;;;;5009092;28;20049;-85
2020/12/27 15:12:43;;;;;;;5.47;4.35;;;0.70;76.90;;;;;;5008286;28;20036;-84
2020/12/27 15:15:09;;;;;;;6.80;4.07;;;0.60;76.50;;;;;;5007443;28;20079;-84
2020/12/27 15:17:37;;;;;;;6.43;4.45;;;0.50;76.30;;;;;;5007349;28;20064;-84
2020/12/27 15:20:04;;;;;;;5.30;3.90;;;0.20;77.00;;;;;;5008252;28;20112;-84
2020/12/27 15:22:30;;;;;;;7.13;3.60;;;0.30;76.90;;;;;;5007740;28;20503;-84
2020/12/27 15:24:56;;;;;;;7.10;4.13;;;0.50;77.00;;;;;;5025326;28;20030;-84
2020/12/27 15:27:25;;;;;;;10.10;5.07;;;0.40;79.20;;;;;;5002946;28;20018;-86
2020/12/27 15:29:51;;;;;;;8.63;5.07;;;1.80;99.90;;;;;;5005277;28;20037;-84
2020/12/27 15:32:18;;;;;;;9.00;5.15;;;1.60;84.30;;;;;;5004187;28;20049;-84
2020/12/27 15:34:45;;;;;;;10.02;5.75;;;1.10;81.60;;;;;;5008200;28;20080;-84
2020/12/27 15:37:12;;;;;;;14.93;10.70;;;1.00;82.70;;;;;;5009025;28;20065;-85
2020/12/27 15:39:38;;;;;;;36.17;26.08;;;0.60;84.40;;;;;;5010096;28;20029;-84
2020/12/27 15:42:04;;;;;;;17.77;10.82;;;0.50;85.20;;;;;;5027954;28;20026;-83
2020/12/27 15:44:30;;;;;;;9.95;6.82;;;0.30;87.00;;;;;;5011404;28;20041;-84
2020/12/27 15:46:57;;;;;;;9.95;7.13;;;0.30;86.70;;;;;;5011947;28;20055;-84
2020/12/27 15:49:40;;;;;;;10.60;6.18;;;0.10;86.80;;;;;;5029370;28;20034;-84
2020/12/27 15:52:13;;;;;;;14.02;7.13;;;0.10;86.90;;;;;;5030635;28;20065;-84
2020/12/27 15:54:40;;;;;;;11.15;7.53;;;0.00;86.60;;;;;;5028374;28;20025;-84
2020/12/27 15:57:06;;;;;;;11.13;6.45;;;0.00;86.90;;;;;;5012154;28;20396;-84
2020/12/27 15:59:32;;;;;;;10.60;6.60;;;0.10;86.80;;;;;;5010604;28;20097;-84
2020/12/27 16:02:00;;;;;;;10.93;7.25;;;0.30;87.20;;;;;;5010671;28;20056;-84
2020/12/27 16:04:26;;;;;;;9.13;6.85;;;0.20;87.90;;;;;;5008145;28;20030;-84
2020/12/27 16:06:51;;;;;;;11.50;6.75;;;0.70;88.80;;;;;;4994495;28;20080;-84
2020/12/27 16:09:17;;;;;;;11.90;6.50;;;0.00;88.60;;;;;;5008671;28;20048;-84
2020/12/27 16:11:43;;;;;;;9.65;6.70;;;0.30;88.10;;;;;;5010258;28;20034;-84
2020/12/27 16:14:11;;;;;;;10.00;6.80;;;-0.10;87.70;;;;;;5010531;28;20485;-85
2020/12/27 16:16:43;;;;;;;9.75;6.35;;;0.20;86.80;;;;;;5011505;28;20038;-84
2020/12/27 16:19:09;;;;;;;11.35;5.63;;;-0.10;86.20;;;;;;5014961;28;20030;-85
2020/12/27 16:21:35;;;;;;;8.73;6.15;;;0.30;86.10;;;;;;4996819;28;20042;-84
2020/12/27 16:24:01;;;;;;;11.07;6.20;;;0.10;84.90;;;;;;5011195;28;20076;-85
2020/12/27 16:26:27;;;;;;;8.63;5.85;;;-0.10;84.60;;;;;;5029214;28;20049;-84
2020/12/27 16:28:52;;;;;;;9.60;5.65;;;-0.10;85.30;;;;;;5011420;28;20030;-84
2020/12/27 16:31:27;;;;;;;9.50;6.72;;;-0.20;85.00;;;;;;5001106;28;20125;-79
2020/12/27 16:33:53;;;;;;;11.65;6.85;;;-0.20;85.40;;;;;;4958203;28;20070;-78
2020/12/27 16:36:19;;;;;;;10.55;6.05;;;-0.10;86.60;;;;;;4958087;28;20030;-79
2020/12/27 16:38:44;;;;;;;8.52;6.45;;;-0.20;87.80;;;;;;4958427;28;20027;-79
2020/12/27 16:41:10;;;;;;;10.82;6.50;;;-0.20;87.80;;;;;;4958327;28;20390;-81
2020/12/27 16:43:36;;;;;;;8.82;6.20;;;-0.20;87.70;;;;;;4958969;28;20069;-80
2020/12/27 16:46:04;;;;;;;10.63;7.00;;;-0.20;88.10;;;;;;4958314;28;20031;-82
2020/12/27 16:48:29;;;;;;;9.45;6.72;;;-0.20;88.50;;;;;;4961482;28;20022;-82
2020/12/27 16:50:57;;;;;;;9.32;6.07;;;-0.20;88.70;;;;;;4958918;28;20194;-80
2020/12/27 16:53:23;;;;;;;9.63;6.57;;;-0.20;88.50;;;;;;4959692;28;20031;-81
2020/12/27 16:55:48;;;;;;;13.10;7.03;;;-0.20;87.90;;;;;;4960348;28;20042;-80
2020/12/27 16:58:14;;;;;;;12.27;7.47;;;-0.30;87.80;;;;;;4960388;28;20039;-80
2020/12/27 17:00:40;;;;;;;10.65;6.65;;;-0.30;88.10;;;;;;4959799;28;20038;-83
2020/12/27 17:03:06;;;;;;;10.57;7.00;;;-0.20;87.50;;;;;;4960371;28;20042;-84
2020/12/27 17:05:31;;;;;;;11.15;7.18;;;-0.20;87.80;;;;;;4960910;28;20026;-82
2020/12/27 17:07:57;;;;;;;11.07;6.57;;;-0.20;87.10;;;;;;4960796;28;20085;-82
2020/12/27 17:10:23;;;;;;;8.52;6.07;;;-0.30;86.90;;;;;;4961012;28;20054;-84
2020/12/27 17:12:48;;;;;;;10.93;6.57;;;-0.30;87.30;;;;;;4960416;28;20150;-84
2020/12/27 17:15:14;;;;;;;10.15;6.93;;;-0.40;88.00;;;;;;4959930;28;20031;-82
2020/12/27 17:17:40;;;;;;;12.77;7.55;;;-0.40;88.20;;;;;;4960130;28;20030;-82
2020/12/27 17:20:05;;;;;;;13.57;8.25;;;-0.40;89.20;;;;;;4960495;28;20023;-82
2020/12/27 17:22:31;;;;;;;16.60;9.57;;;-0.40;88.50;;;;;;4963373;28;20029;-82
2020/12/27 17:24:56;;;;;;;13.40;8.30;;;-0.40;88.80;;;;;;4959232;28;20031;-82
2020/12/27 17:27:22;;;;;;;14.65;8.88;;;-0.40;88.70;;;;;;4959665;28;20030;-85
2020/12/27 17:30:10;;;;;;;14.65;9.32;;;-0.40;88.00;;;;;;4968668;28;20049;-84
2020/12/27 17:32:37;;;;;;;14.57;9.23;;;-0.40;87.50;;;;;;4974963;28;20050;-84
2020/12/27 17:35:03;;;;;;;15.45;10.07;;;-0.20;87.80;;;;;;4981004;28;20027;-84
2020/12/27 17:37:31;;;;;;;16.80;10.43;;;0.00;87.80;;;;;;4980624;28;20109;-83
2020/12/27 17:39:57;;;;;;;16.30;9.43;;;-0.50;87.80;;;;;;4980659;28;20026;-81
2020/12/27 17:42:23;;;;;;;14.20;9.77;;;-0.50;88.00;;;;;;4979588;28;20169;-83
2020/12/27 17:44:49;;;;;;;12.45;9.18;;;-0.50;87.90;;;;;;4979403;28;20038;-82
2020/12/27 17:47:22;;;;;;;12.52;7.78;;;-0.60;88.20;;;;;;4978981;28;20030;-84
2020/12/27 17:49:48;;;;;;;14.10;8.52;;;-0.60;88.30;;;;;;4978717;28;20030;-83
2020/12/27 17:52:14;;;;;;;13.15;8.02;;;-0.50;88.30;;;;;;4979314;28;20023;-83
2020/12/27 17:54:40;;;;;;;14.55;8.30;;;-0.50;88.00;;;;;;4980235;28;20033;-83
2020/12/27 17:57:06;;;;;;;12.63;8.05;;;-0.50;87.80;;;;;;4980217;28;20122;-84
2020/12/27 17:59:32;;;;;;;12.27;8.35;;;-0.50;87.70;;;;;;4981065;28;20438;-84
2020/12/27 18:01:57;;;;;;;14.43;9.73;;;-0.50;87.30;;;;;;4981170;28;20034;-83
2020/12/27 18:04:23;;;;;;;17.77;9.75;;;-0.50;87.70;;;;;;4979975;28;20026;-85
2020/12/27 18:06:52;;;;;;;13.65;8.65;;;-0.50;87.30;;;;;;4980653;28;20054;-83
2020/12/27 18:09:18;;;;;;;12.88;8.73;;;-0.60;88.20;;;;;;4980459;28;20045;-83
2020/12/27 18:11:44;;;;;;;13.70;8.23;;;-0.50;88.40;;;;;;4980317;28;20034;-85
2020/12/27 18:14:11;;;;;;;13.02;9.30;;;-0.50;88.30;;;;;;4979874;28;20053;-83
2020/12/27 18:16:36;;;;;;;14.15;9.40;;;-0.50;88.30;;;;;;4979840;28;20038;-85
2020/12/27 18:19:02;;;;;;;15.75;10.57;;;-0.60;88.40;;;;;;4979365;28;20033;-84
2020/12/27 18:21:28;;;;;;;12.52;9.48;;;-0.30;88.60;;;;;;4979982;28;20034;-83
2020/12/27 18:23:55;;;;;;;11.95;8.18;;;-0.40;88.30;;;;;;4980460;28;20027;-83
2020/12/27 18:26:21;;;;;;;13.05;8.82;;;-0.50;86.20;;;;;;4982327;28;20077;-85
2020/12/27 18:28:48;;;;;;;14.40;8.52;;;-0.50;86.00;;;;;;4983712;28;20031;-84
2020/12/27 18:31:16;;;;;;;11.40;7.55;;;-0.50;86.00;;;;;;4983346;28;20069;-84
2020/12/27 18:33:42;;;;;;;11.80;8.10;;;-0.50;86.20;;;;;;4983932;28;20058;-85
2020/12/27 18:36:09;;;;;;;12.30;7.85;;;-0.50;86.70;;;;;;4983463;28;20030;-83
2020/12/27 18:38:36;;;;;;;12.07;7.90;;;-0.50;86.70;;;;;;4983377;28;20496;-84
2020/12/27 18:41:06;;;;;;;10.18;7.13;;;-0.40;86.70;;;;;;4983333;28;20109;-83
2020/12/27 18:43:32;;;;;;;10.68;8.00;;;-0.50;86.30;;;;;;4983411;28;20080;-84
2020/12/27 18:45:58;;;;;;;11.05;8.23;;;-0.50;86.40;;;;;;4982451;28;20098;-85
2020/12/27 18:48:25;;;;;;;14.77;9.02;;;-0.50;87.20;;;;;;4982443;28;20054;-83
2020/12/27 18:50:51;;;;;;;12.93;8.98;;;-0.40;86.90;;;;;;4983094;28;20084;-84
2020/12/27 18:53:17;;;;;;;14.60;9.13;;;-0.60;86.40;;;;;;4983430;28;20026;-84
2020/12/27 18:55:42;;;;;;;13.18;8.40;;;-0.50;86.40;;;;;;4983656;28;20030;-84
2020/12/27 18:58:08;;;;;;;9.80;7.55;;;-0.50;87.30;;;;;;4983138;28;20118;-84
2020/12/27 19:00:33;;;;;;;13.40;8.10;;;-0.10;87.50;;;;;;4983415;28;20030;-83
2020/12/27 19:02:59;;;;;;;15.70;8.30;;;-0.50;87.60;;;;;;4983588;28;20022;-83
2020/12/27 19:05:25;;;;;;;12.13;8.07;;;-0.30;87.80;;;;;;4984230;28;20030;-85
2020/12/27 19:07:50;;;;;;;13.93;9.13;;;-0.60;88.30;;;;;;4983852;28;20378;-84
2020/12/27 19:10:16;;;;;;;14.55;9.05;;;-0.50;88.20;;;;;;4983622;28;20042;-83
2020/12/27 19:12:41;;;;;;;14.55;8.88;;;-0.60;88.00;;;;;;4983039;28;20027;-84
2020/12/27 19:15:07;;;;;;;12.45;7.90;;;-0.60;88.20;;;;;;4983496;28;20040;-84
2020/12/27 19:17:33;;;;;;;16.70;8.48;;;-0.60;88.30;;;;;;4983598;28;20133;-84
2020/12/27 19:19:58;;;;;;;15.70;9.13;;;-0.50;88.00;;;;;;4983127;28;20038;-82
2020/12/27 19:22:24;;;;;;;18.13;8.73;;;-0.60;88.80;;;;;;4981998;28;20409;-83
2020/12/27 19:24:49;;;;;;;13.32;9.05;;;-0.60;89.10;;;;;;4999531;28;20572;-83
2020/12/27 19:27:15;;;;;;;13.70;9.20;;;-0.70;89.80;;;;;;4982219;28;20026;-84
2020/12/27 19:29:41;;;;;;;13.35;9.07;;;-0.70;89.30;;;;;;4982623;28;20080;-83
2020/12/27 19:32:06;;;;;;;13.40;8.90;;;-0.70;89.70;;;;;;4981439;28;20042;-83
2020/12/27 19:34:32;;;;;;;15.18;10.40;;;-0.80;89.50;;;;;;4981011;28;20023;-83
2020/12/27 19:36:57;;;;;;;13.10;8.65;;;-0.70;90.10;;;;;;4980389;28;20069;-83
2020/12/27 19:39:23;;;;;;;13.65;9.43;;;-0.70;90.20;;;;;;4980158;28;20117;-82
2020/12/27 19:41:49;;;;;;;11.95;8.98;;;-0.70;90.10;;;;;;4980464;28;20026;-82
2020/12/27 19:44:14;;;;;;;16.42;9.77;;;-0.80;90.00;;;;;;4980827;28;20097;-82
2020/12/27 19:46:40;;;;;;;21.42;13.20;;;-0.70;90.20;;;;;;4980699;28;20081;-83
2020/12/27 19:49:06;;;;;;;15.65;9.38;;;-0.80;90.20;;;;;;4979909;28;20474;-83
2020/12/27 19:51:33;;;;;;;11.30;8.07;;;-0.70;89.70;;;;;;4980722;28;20022;-81
2020/12/27 19:54:00;;;;;;;13.73;8.27;;;-0.70;88.90;;;;;;4980389;28;20033;-82
2020/12/27 19:56:28;;;;;;;11.30;7.95;;;-0.70;88.90;;;;;;4997589;28;20045;-84
2020/12/27 19:58:53;;;;;;;13.55;8.90;;;-0.70;89.60;;;;;;4980066;28;20026;-82
2020/12/27 20:01:20;;;;;;;12.38;8.52;;;-0.70;89.20;;;;;;4979524;28;20029;-82
2020/12/27 20:03:46;;;;;;;13.35;8.07;;;-0.70;89.50;;;;;;4979552;28;20026;-83
2020/12/27 20:06:14;;;;;;;14.13;8.73;;;-0.70;89.80;;;;;;4979693;28;20026;-84
2020/12/27 20:08:40;;;;;;;11.35;8.35;;;-0.70;89.40;;;;;;4979401;28;20026;-83
2020/12/27 20:11:06;;;;;;;14.18;7.78;;;-0.70;89.40;;;;;;4980669;28;20029;-82
2020/12/27 20:13:31;;;;;;;11.30;7.95;;;-0.80;89.60;;;;;;4980384;28;20033;-83
2020/12/27 20:16:01;;;;;;;12.10;7.55;;;-0.70;89.90;;;;;;4979800;28;20054;-83
2020/12/27 20:18:30;;;;;;;11.52;7.85;;;-0.70;89.50;;;;;;4980100;28;20085;-82
2020/12/27 20:20:56;;;;;;;10.85;7.47;;;-0.80;89.00;;;;;;4979817;28;20023;-82
2020/12/27 20:23:23;;;;;;;11.45;7.20;;;-0.80;89.10;;;;;;4979235;28;20057;-83
2020/12/27 20:25:49;;;;;;;13.48;8.00;;;-0.80;89.80;;;;;;4979395;28;20050;-82
2020/12/27 20:28:14;;;;;;;12.73;8.40;;;-0.80;89.60;;;;;;4979766;28;20030;-82
2020/12/27 20:30:40;;;;;;;12.05;7.78;;;-0.80;90.00;;;;;;4979495;28;20121;-83
2020/12/27 20:33:06;;;;;;;12.10;7.70;;;-0.70;88.60;;;;;;4956950;28;657344;-82
2020/12/27 20:35:31;;;;;;;11.48;7.57;;;-0.80;89.80;;;;;;4997610;28;20109;-84
2020/12/27 20:37:57;;;;;;;10.73;6.95;;;-0.70;89.80;;;;;;4997041;28;20030;-82
2020/12/27 20:40:23;;;;;;;11.55;7.63;;;-0.80;89.50;;;;;;4978869;28;20019;-82
2020/12/27 20:42:48;;;;;;;12.65;7.05;;;-0.70;90.00;;;;;;4979981;28;20033;-82
2020/12/27 20:45:14;;;;;;;10.95;7.75;;;-0.80;90.10;;;;;;4980046;28;20019;-82
2020/12/27 20:47:39;;;;;;;12.32;8.07;;;-0.80;90.20;;;;;;4979575;28;20845;-83
2020/12/27 20:50:05;;;;;;;13.20;8.95;;;-0.80;90.40;;;;;;4979332;28;20058;-84
2020/12/27 20:52:31;;;;;;;11.73;7.65;;;-0.70;90.40;;;;;;4980165;28;20030;-82
2020/12/27 20:54:57;;;;;;;12.50;8.00;;;-0.70;90.40;;;;;;4980968;28;20381;-83
2020/12/27 20:57:22;;;;;;;13.05;9.15;;;-0.70;90.30;;;;;;4980334;28;20038;-82
2020/12/27 20:59:48;;;;;;;13.93;8.60;;;-0.70;90.20;;;;;;4978366;28;20034;-80
2020/12/27 21:02:14;;;;;;;14.20;8.82;;;-0.80;90.20;;;;;;4978192;28;20034;-81
2020/12/27 21:04:39;;;;;;;12.45;9.30;;;-0.80;90.50;;;;;;4978491;28;20030;-81
2020/12/27 21:07:05;;;;;;;12.80;9.00;;;-0.70;90.60;;;;;;4978581;28;20536;-83
2020/12/27 21:09:31;;;;;;;13.68;8.60;;;-0.80;90.70;;;;;;4978614;28;20478;-82
2020/12/27 21:11:56;;;;;;;13.35;8.65;;;-0.80;90.60;;;;;;4978610;28;20125;-84
2020/12/27 21:14:22;;;;;;;13.80;9.15;;;-0.80;90.70;;;;;;4978349;28;20030;-81
2020/12/27 21:16:48;;;;;;;14.00;8.88;;;-0.70;90.70;;;;;;4978271;28;20409;-84
2020/12/27 21:19:13;;;;;;;14.65;8.77;;;-0.70;90.60;;;;;;4978079;28;20026;-82
2020/12/27 21:21:41;;;;;;;13.70;8.88;;;-0.80;90.80;;;;;;4977695;28;20100;-81
2020/12/27 21:24:07;;;;;;;15.07;9.60;;;-0.80;90.90;;;;;;4978001;28;20023;-83
2020/12/27 21:26:32;;;;;;;14.73;9.50;;;-0.80;90.90;;;;;;4977776;28;20037;-82
2020/12/27 21:28:58;;;;;;;12.95;9.20;;;-0.70;91.00;;;;;;4977925;28;20030;-82
2020/12/27 21:31:23;;;;;;;13.43;9.00;;;-0.70;91.10;;;;;;4977942;28;20081;-82
2020/12/27 21:33:49;;;;;;;15.10;9.38;;;-0.70;91.00;;;;;;4978425;28;20049;-81
2020/12/27 21:36:15;;;;;;;12.27;8.23;;;-0.80;91.10;;;;;;4995557;28;20038;-83
2020/12/27 21:38:40;;;;;;;14.45;9.35;;;-0.80;91.30;;;;;;4977953;28;20035;-82
2020/12/27 21:41:06;;;;;;;14.07;9.50;;;-0.80;91.20;;;;;;4977968;28;20026;-82
2020/12/27 21:43:32;;;;;;;19.17;10.40;;;-0.80;91.40;;;;;;4978393;28;20509;-82
2020/12/27 21:45:57;;;;;;;15.32;10.55;;;-0.70;91.70;;;;;;4977855;28;20034;-82
2020/12/27 21:48:23;;;;;;;15.20;10.15;;;-0.80;91.50;;;;;;4977689;28;20031;-81
2020/12/27 21:50:49;;;;;;;16.40;10.90;;;-0.70;91.50;;;;;;4995003;28;20034;-81
2020/12/27 21:53:15;;;;;;;17.05;12.23;;;-0.70;91.60;;;;;;4977701;28;20116;-82
2020/12/27 21:55:41;;;;;;;16.45;10.38;;;-0.70;91.10;;;;;;4977660;28;20038;-82
2020/12/27 21:58:06;;;;;;;14.75;10.75;;;-0.70;91.00;;;;;;4977587;28;20034;-82
2020/12/27 22:00:32;;;;;;;18.63;11.98;;;-0.70;90.80;;;;;;4980208;28;20030;-82
2020/12/27 22:02:58;;;;;;;16.40;11.27;;;-0.70;90.80;;;;;;4981577;28;20042;-82
2020/12/27 22:05:23;;;;;;;18.13;10.45;;;-0.70;91.10;;;;;;4981807;28;20026;-82
2020/12/27 22:07:49;;;;;;;17.20;11.23;;;-0.70;91.50;;;;;;4981368;28;20080;-83
2020/12/27 22:10:15;;;;;;;16.25;10.82;;;-0.80;91.50;;;;;;4981452;28;20525;-82
2020/12/27 22:12:41;;;;;;;17.55;11.65;;;-0.80;92.00;;;;;;4981517;28;20027;-82
2020/12/27 22:15:06;;;;;;;15.95;10.68;;;-0.80;91.80;;;;;;4981496;28;20034;-82
2020/12/27 22:17:33;;;;;;;17.20;11.35;;;-0.80;92.30;;;;;;4981025;28;20166;-82
2020/12/27 22:19:58;;;;;;;18.20;12.73;;;-0.80;92.50;;;;;;4981414;28;20030;-81
2020/12/27 22:22:24;;;;;;;18.02;11.30;;;-0.80;92.30;;;;;;4980924;28;20156;-82
2020/12/27 22:24:50;;;;;;;18.35;11.77;;;-0.80;92.20;;;;;;4981038;28;20045;-82
2020/12/27 22:27:15;;;;;;;19.15;11.80;;;-0.80;92.70;;;;;;4981034;28;20466;-82
2020/12/27 22:29:41;;;;;;;21.23;12.10;;;-0.80;92.70;;;;;;4980993;28;20031;-82
2020/12/27 22:32:06;;;;;;;16.25;12.23;;;-0.80;92.80;;;;;;4980664;28;20133;-82
2020/12/27 22:34:32;;;;;;;18.15;12.05;;;-0.80;92.50;;;;;;4980952;28;20034;-82
2020/12/27 22:36:59;;;;;;;19.27;12.48;;;-0.80;92.10;;;;;;4981049;28;20045;-83
2020/12/27 22:39:24;;;;;;;17.35;11.57;;;-0.80;92.50;;;;;;4980760;28;20037;-83
2020/12/27 22:41:50;;;;;;;19.73;12.77;;;-0.90;92.20;;;;;;4980544;28;20035;-81
2020/12/27 22:44:16;;;;;;;19.15;12.77;;;-1.00;92.60;;;;;;4980853;28;20041;-81
2020/12/27 22:46:42;;;;;;;18.35;12.45;;;-1.00;92.60;;;;;;4980545;28;20390;-81
2020/12/27 22:49:07;;;;;;;18.40;12.50;;;-1.00;92.70;;;;;;4980574;28;20080;-82
2020/12/27 22:51:33;;;;;;;19.38;12.75;;;-1.00;93.00;;;;;;4980579;28;20053;-83
2020/12/27 22:53:59;;;;;;;19.45;13.27;;;-1.00;93.00;;;;;;4980721;28;20169;-82
2020/12/27 22:56:24;;;;;;;22.25;13.40;;;-1.10;93.30;;;;;;4980674;28;20031;-82
2020/12/27 22:58:50;;;;;;;19.33;13.27;;;-1.10;93.60;;;;;;4980712;28;20465;-82
2020/12/27 23:01:17;;;;;;;19.90;13.70;;;-1.10;94.20;;;;;;4980658;28;20027;-81
2020/12/27 23:03:43;;;;;;;19.00;13.45;;;-1.10;94.10;;;;;;4998023;28;20462;-82
2020/12/27 23:06:14;;;;;;;20.02;13.57;;;-1.10;94.20;;;;;;4981033;28;20041;-81
2020/12/27 23:08:39;;;;;;;21.10;14.18;;;-1.10;94.60;;;;;;4980400;28;20026;-83
2020/12/27 23:11:08;;;;;;;20.63;14.18;;;-1.20;94.80;;;;;;4997358;28;20382;-82
2020/12/27 23:13:34;;;;;;;21.55;13.15;;;-1.20;94.70;;;;;;4980448;28;20109;-82
2020/12/27 23:16:00;;;;;;;19.55;13.40;;;-1.10;94.90;;;;;;4997620;28;20396;-82
2020/12/27 23:18:26;;;;;;;20.17;13.95;;;-1.10;94.70;;;;;;4980422;28;20113;-83
2020/12/27 23:20:51;;;;;;;18.95;13.55;;;-1.10;94.60;;;;;;4997586;28;20042;-81
2020/12/27 23:23:17;;;;;;;20.27;13.60;;;-1.10;94.60;;;;;;4997004;28;20070;-82
2020/12/27 23:25:42;;;;;;;20.52;13.50;;;-1.10;94.50;;;;;;4997045;28;20053;-81
2020/12/27 23:28:08;;;;;;;20.88;14.25;;;-1.20;94.70;;;;;;4980130;28;20474;-82
2020/12/27 23:30:35;;;;;;;20.48;14.38;;;-1.20;94.80;;;;;;4980059;28;20027;-82
2020/12/27 23:33:05;;;;;;;21.50;14.45;;;-1.20;94.80;;;;;;4979842;28;20375;-82
2020/12/27 23:35:31;;;;;;;20.50;14.20;;;-1.10;94.80;;;;;;4979793;28;20038;-81
2020/12/27 23:37:56;;;;;;;21.27;13.93;;;-1.10;94.60;;;;;;4980309;28;20031;-83
2020/12/27 23:40:24;;;;;;;18.83;13.98;;;-1.10;94.20;;;;;;4980019;28;20028;-82
2020/12/27 23:42:51;;;;;;;22.98;14.50;;;-1.10;94.40;;;;;;4979698;28;20030;-83
2020/12/27 23:45:17;;;;;;;18.48;12.82;;;-1.10;94.40;;;;;;4979655;28;20490;-82
2020/12/27 23:47:43;;;;;;;17.98;12.85;;;-1.10;94.10;;;;;;4979839;28;20026;-82
2020/12/27 23:50:10;;;;;;;17.65;12.90;;;-1.10;93.80;;;;;;4996997;28;20045;-82
2020/12/27 23:52:35;;;;;;;23.23;13.70;;;-1.10;93.70;;;;;;4979811;28;20425;-82
2020/12/27 23:55:01;;;;;;;21.45;13.85;;;-1.10;93.30;;;;;;4979401;28;20023;-82
2020/12/27 23:57:27;;;;;;;20.55;13.93;;;-1.10;93.60;;;;;;4979422;28;20600;-81
2020/12/27 23:59:52;;;;;;;20.15;14.15;;;-1.10;93.70;;;;;;4979586;28;20030;-81
